Time,TemperatureF,DewpointF,PressureIn,WindDirection,WindDirectionDegrees,WindSpeedMPH,WindSpeedGustMPH,Humidity,HourlyPrecipIn,Conditions,Clouds,dailyrainin,SoftwareType,DateUTC
2013-07-19 00:05:00,70.9,70.9,29.84,NE,34,0.0,1.0,100,0.00,,,0.01,Wunderground PWS Mod,2013-07-19 04:05:00,
2013-07-19 00:10:00,70.9,70.9,29.84,NE,34,0.0,1.0,100,0.00,,,0.00,Wunderground PWS Mod,2013-07-19 04:10:00,
2013-07-19 00:15:00,70.8,70.8,29.84,NE,34,0.0,0.0,100,0.00,,,0.00,Wunderground PWS Mod,2013-07-19 04:15:00,
2013-07-19 00:20:00,70.6,70.6,29.84,NE,34,0.0,0.0,100,0.00,,,0.00,Wunderground PWS Mod,2013-07-19 04:20:00,
2013-07-19 00:25:00,70.4,70.4,29.83,NE,34,0.0,0.0,100,0.00,,,0.00,Wunderground PWS Mod,2013-07-19 04:25:00,
2013-07-19 00:30:00,70.4,70.4,29.83,NE,34,0.0,0.0,100,0.00,,,0.00,Wunderground PWS Mod,2013-07-19 04:30:00,
2013-07-19 00:40:00,70.4,70.4,29.83,NE,34,0.0,0.0,100,0.00,,,0.00,Wunderground PWS Mod,2013-07-19 04:40:00,
2013-07-19 00:45:00,70.4,70.4,29.83,NE,34,0.0,2.0,100,0.00,,,0.00,Wunderground PWS Mod,2013-07-19 04:45:00,
2013-07-19 00:55:00,70.1,70.1,29.83,NE,34,0.0,2.0,100,0.00,,,0.00,Wunderground PWS Mod,2013-07-19 04:55:00,
2013-07-19 01:00:00,70.1,70.1,29.83,NE,34,0.0,2.0,100,0.00,,,0.00,Wunderground PWS Mod,2013-07-19 05:00:00,
2013-07-19 01:10:00,69.9,69.9,29.82,NE,34,0.0,2.0,100,0.00,,,0.00,Wunderground PWS Mod,2013-07-19 05:10:00,
2013-07-19 01:15:00,69.9,69.9,29.82,NE,34,0.0,0.0,100,0.00,,,0.00,Wunderground PWS Mod,2013-07-19 05:15:00,
2013-07-19 01:25:00,69.8,69.8,29.82,NE,34,0.0,0.0,100,0.00,,,0.00,Wunderground PWS Mod,2013-07-19 05:25:00,
2013-07-19 01:35:00,69.8,69.8,29.82,NE,34,0.0,0.0,100,0.00,,,0.00,Wunderground PWS Mod,2013-07-19 05:35:00,
2013-07-19 01:40:00,69.8,69.8,29.81,NE,34,0.0,0.0,100,0.00,,,0.00,Wunderground PWS Mod,2013-07-19 05:40:00,
2013-07-19 01:45:00,69.4,69.4,29.81,NE,45,0.0,3.0,100,0.00,,,0.00,Wunderground PWS Mod,2013-07-19 05:45:00,
2013-07-19 01:50:00,69.8,69.8,29.81,NE,34,0.0,0.0,100,0.00,,,0.00,Wunderground PWS Mod,2013-07-19 05:50:00,
2013-07-19 01:55:00,69.6,69.6,29.81,NE,34,0.0,1.0,100,0.00,,,0.00,Wunderground PWS Mod,2013-07-19 05:55:00,
2013-07-19 02:00:00,69.6,69.6,29.81,NE,34,1.0,2.0,100,0.00,,,0.00,Wunderground PWS Mod,2013-07-19 06:00:00,
2013-07-19 02:05:00,69.4,69.4,29.81,SW,228,1.0,1.0,100,0.00,,,0.00,Wunderground PWS Mod,2013-07-19 06:05:00,
2013-07-19 02:15:00,69.6,69.6,29.81,SW,229,0.0,3.0,100,0.00,,,0.01,Wunderground PWS Mod,2013-07-19 06:15:00,
2013-07-19 02:20:00,69.6,69.6,29.80,SW,225,0.0,1.0,100,0.01,,,0.01,Wunderground PWS Mod,2013-07-19 06:20:00,
2013-07-19 02:25:00,69.6,69.6,29.81,SW,228,0.0,3.0,100,0.00,,,0.01,Wunderground PWS Mod,2013-07-19 06:25:00,
2013-07-19 02:30:00,69.6,69.6,29.81,SW,229,0.0,3.0,100,0.00,,,0.01,Wunderground PWS Mod,2013-07-19 06:30:00,
2013-07-19 02:40:00,69.6,69.6,29.80,SW,229,0.0,3.0,100,0.00,,,0.01,Wunderground PWS Mod,2013-07-19 06:40:00,
2013-07-19 02:45:00,69.6,69.6,29.80,SW,228,0.0,1.0,100,0.00,,,0.01,Wunderground PWS Mod,2013-07-19 06:45:00,
2013-07-19 02:50:00,69.6,69.6,29.80,SW,229,0.0,1.0,100,0.00,,,0.01,Wunderground PWS Mod,2013-07-19 06:50:00,
2013-07-19 03:00:00,69.6,69.6,29.79,SW,229,0.0,1.0,100,0.00,,,0.01,Wunderground PWS Mod,2013-07-19 07:00:00,
2013-07-19 03:05:00,69.4,69.4,29.79,SW,229,0.0,1.0,100,0.00,,,0.01,Wunderground PWS Mod,2013-07-19 07:05:00,
2013-07-19 03:10:00,69.4,69.4,29.78,SW,229,0.0,1.0,100,0.00,,,0.01,Wunderground PWS Mod,2013-07-19 07:10:00,
2013-07-19 03:15:00,69.3,69.3,29.78,SW,229,0.0,1.0,100,0.00,,,0.01,Wunderground PWS Mod,2013-07-19 07:15:00,
2013-07-19 03:25:00,69.3,69.3,29.78,SW,229,0.0,1.0,100,0.00,,,0.01,Wunderground PWS Mod,2013-07-19 07:25:00,
2013-07-19 03:35:00,69.1,69.1,29.78,SW,228,0.0,1.0,100,0.00,,,0.01,Wunderground PWS Mod,2013-07-19 07:35:00,
2013-07-19 03:40:00,69.1,69.1,29.76,SW,229,0.0,1.0,100,0.00,,,0.01,Wunderground PWS Mod,2013-07-19 07:40:00,
2013-07-19 03:45:00,68.9,68.9,29.76,SW,229,0.0,1.0,100,0.00,,,0.01,Wunderground PWS Mod,2013-07-19 07:45:00,
2013-07-19 03:55:00,68.9,68.9,29.76,SW,228,0.0,1.0,100,0.00,,,0.01,Wunderground PWS Mod,2013-07-19 07:55:00,
2013-07-19 04:00:00,68.9,68.9,29.76,SW,229,0.0,1.0,100,0.00,,,0.01,Wunderground PWS Mod,2013-07-19 08:00:00,
2013-07-19 04:10:00,68.9,68.9,29.76,SW,228,0.0,1.0,100,0.00,,,0.01,Wunderground PWS Mod,2013-07-19 08:10:00,
2013-07-19 04:15:00,68.8,68.8,29.76,SW,229,0.0,0.0,100,0.00,,,0.01,Wunderground PWS Mod,2013-07-19 08:15:00,
2013-07-19 04:25:00,68.8,68.8,29.76,SW,229,0.0,0.0,100,0.00,,,0.01,Wunderground PWS Mod,2013-07-19 08:25:00,
2013-07-19 04:30:00,68.8,68.8,29.76,SW,229,0.0,0.0,100,0.00,,,0.01,Wunderground PWS Mod,2013-07-19 08:30:00,
2013-07-19 04:35:00,68.8,68.8,29.76,SW,229,0.0,0.0,100,0.00,,,0.01,Wunderground PWS Mod,2013-07-19 08:35:00,
2013-07-19 04:40:00,68.6,68.6,29.76,SW,229,0.0,0.0,100,0.00,,,0.01,Wunderground PWS Mod,2013-07-19 08:40:00,
2013-07-19 04:50:00,68.4,68.4,29.76,SW,229,0.0,1.0,100,0.00,,,0.01,Wunderground PWS Mod,2013-07-19 08:50:00,
2013-07-19 04:55:00,68.4,68.4,29.76,SW,229,0.0,1.0,100,0.00,,,0.01,Wunderground PWS Mod,2013-07-19 08:55:00,
2013-07-19 05:00:00,68.4,68.4,29.76,SW,229,0.0,1.0,100,0.00,,,0.01,Wunderground PWS Mod,2013-07-19 09:00:00,
2013-07-19 05:10:00,68.3,68.3,29.77,SW,229,0.0,1.0,100,0.00,,,0.01,Wunderground PWS Mod,2013-07-19 09:10:00,
2013-07-19 05:15:00,68.3,68.3,29.77,SW,229,0.0,0.0,100,0.00,,,0.01,Wunderground PWS Mod,2013-07-19 09:15:00,
2013-07-19 05:25:00,68.3,68.3,29.77,SW,229,0.0,0.0,100,0.00,,,0.01,Wunderground PWS Mod,2013-07-19 09:25:00,
2013-07-19 05:30:00,68.1,68.1,29.77,SW,229,0.0,0.0,100,0.00,,,0.01,Wunderground PWS Mod,2013-07-19 09:30:00,
2013-07-19 05:35:00,68.1,68.1,29.77,SW,229,0.0,0.0,100,0.00,,,0.01,Wunderground PWS Mod,2013-07-19 09:35:00,
2013-07-19 05:40:00,67.9,67.9,29.76,SW,229,0.0,0.0,100,0.00,,,0.01,Wunderground PWS Mod,2013-07-19 09:40:00,
2013-07-19 05:45:00,67.8,67.8,29.76,SW,229,0.0,0.0,100,0.00,,,0.01,Wunderground PWS Mod,2013-07-19 09:45:00,
2013-07-19 05:55:00,67.6,67.6,29.76,SW,229,0.0,0.0,100,0.00,,,0.01,Wunderground PWS Mod,2013-07-19 09:55:00,
2013-07-19 06:00:00,67.6,67.6,29.76,SW,229,0.0,0.0,100,0.00,,,0.01,Wunderground PWS Mod,2013-07-19 10:00:00,
2013-07-19 06:05:00,67.6,67.6,29.76,SW,228,0.0,0.0,100,0.00,,,0.01,Wunderground PWS Mod,2013-07-19 10:05:00,
2013-07-19 06:10:00,67.6,67.6,29.77,SW,229,0.0,0.0,100,0.00,,,0.01,Wunderground PWS Mod,2013-07-19 10:10:00,
2013-07-19 06:15:00,67.6,67.6,29.77,SW,229,0.0,0.0,100,0.00,,,0.01,Wunderground PWS Mod,2013-07-19 10:15:00,
2013-07-19 06:20:00,67.9,67.9,29.75,N/A,-737280,0.0,0.0,100,0.00,,,0.01,Wunderground PWS Mod,2013-07-19 10:20:00,
2013-07-19 06:25:00,67.8,67.8,29.77,SW,229,0.0,0.0,100,0.00,,,0.01,Wunderground PWS Mod,2013-07-19 10:25:00,
2013-07-19 06:30:00,67.8,67.8,29.77,SW,229,0.0,0.0,100,0.00,,,0.01,Wunderground PWS Mod,2013-07-19 10:30:00,
2013-07-19 06:35:00,67.8,67.8,29.77,SW,229,0.0,0.0,100,0.00,,,0.01,Wunderground PWS Mod,2013-07-19 10:35:00,
2013-07-19 06:40:00,67.9,67.9,29.75,SW,228,0.0,0.0,100,0.00,,,0.01,Wunderground PWS Mod,2013-07-19 10:40:00,
2013-07-19 06:45:00,67.9,67.9,29.75,SW,229,0.0,0.0,100,0.00,,,0.01,Wunderground PWS Mod,2013-07-19 10:45:00,
2013-07-19 06:55:00,68.1,68.1,29.75,SW,229,0.0,0.0,100,0.00,,,0.01,Wunderground PWS Mod,2013-07-19 10:55:00,
2013-07-19 07:00:00,68.1,68.1,29.75,SW,229,0.0,0.0,100,0.00,,,0.01,Wunderground PWS Mod,2013-07-19 11:00:00,
2013-07-19 07:05:00,68.3,68.3,29.75,SW,229,0.0,0.0,100,0.00,,,0.01,Wunderground PWS Mod,2013-07-19 11:05:00,
2013-07-19 07:10:00,68.4,68.4,29.75,SW,228,0.0,0.0,100,0.00,,,0.01,Wunderground PWS Mod,2013-07-19 11:10:00,
2013-07-19 07:15:00,68.4,68.4,29.75,SW,229,0.0,0.0,100,0.00,,,0.01,Wunderground PWS Mod,2013-07-19 11:15:00,
2013-07-19 07:20:00,68.9,68.9,29.74,SW,225,0.0,1.0,100,0.00,,,0.01,Wunderground PWS Mod,2013-07-19 11:20:00,
2013-07-19 07:25:00,68.6,68.6,29.74,SW,229,0.0,0.0,100,0.00,,,0.01,Wunderground PWS Mod,2013-07-19 11:25:00,
2013-07-19 07:30:00,68.8,68.8,29.74,SW,229,0.0,0.0,100,0.00,,,0.01,Wunderground PWS Mod,2013-07-19 11:30:00,
2013-07-19 07:35:00,68.8,68.8,29.74,SW,229,0.0,0.0,100,0.00,,,0.01,Wunderground PWS Mod,2013-07-19 11:35:00,
2013-07-19 07:45:00,69.1,69.1,29.74,SW,229,0.0,1.0,100,0.00,,,0.01,Wunderground PWS Mod,2013-07-19 11:45:00,
2013-07-19 07:55:00,69.3,69.3,29.73,SW,229,0.0,1.0,100,0.00,,,0.01,Wunderground PWS Mod,2013-07-19 11:55:00,
2013-07-19 08:00:00,69.6,69.6,29.73,SW,229,0.0,1.0,100,0.00,,,0.01,Wunderground PWS Mod,2013-07-19 12:00:00,
2013-07-19 08:05:00,69.8,69.8,29.73,SW,229,0.0,1.0,100,0.00,,,0.01,Wunderground PWS Mod,2013-07-19 12:05:00,
2013-07-19 08:10:00,70.1,70.1,29.73,SW,229,0.0,1.0,100,0.00,,,0.01,Wunderground PWS Mod,2013-07-19 12:10:00,
2013-07-19 08:15:00,70.4,70.4,29.73,SW,229,0.0,1.0,100,0.00,,,0.01,Wunderground PWS Mod,2013-07-19 12:15:00,
2013-07-19 08:25:00,70.8,70.8,29.74,SW,229,0.0,1.0,100,0.00,,,0.01,Wunderground PWS Mod,2013-07-19 12:25:00,
2013-07-19 08:35:00,72.3,72.3,29.74,SW,229,0.0,1.0,100,0.00,,,0.01,Wunderground PWS Mod,2013-07-19 12:35:00,
2013-07-19 08:45:00,73.3,73.3,29.73,SW,229,0.0,2.0,100,0.00,,,0.01,Wunderground PWS Mod,2013-07-19 12:45:00,
2013-07-19 08:55:00,74.7,74.7,29.72,SW,229,0.0,2.0,100,0.00,,,0.01,Wunderground PWS Mod,2013-07-19 12:55:00,
2013-07-19 09:00:00,75.4,75.4,29.72,SW,229,0.0,2.0,100,0.00,,,0.01,Wunderground PWS Mod,2013-07-19 13:00:00,
2013-07-19 09:05:00,76.3,76.3,29.72,SW,229,0.0,2.0,100,0.00,,,0.01,Wunderground PWS Mod,2013-07-19 13:05:00,
2013-07-19 09:10:00,77.0,75.8,29.72,West,259,0.0,3.0,96,0.00,,,0.01,Wunderground PWS Mod,2013-07-19 13:10:00,
2013-07-19 09:15:00,77.9,76.0,29.72,NNW,343,1.0,4.0,94,0.00,,,0.01,Wunderground PWS Mod,2013-07-19 13:15:00,
2013-07-19 09:30:00,80.1,75.5,29.71,West,267,0.0,4.0,86,0.00,,,0.01,Wunderground PWS Mod,2013-07-19 13:30:00,
2013-07-19 09:35:00,80.9,75.6,29.71,WSW,241,2.0,4.0,84,0.00,,,0.01,Wunderground PWS Mod,2013-07-19 13:35:00,
2013-07-19 09:40:00,81.4,74.3,29.70,WNW,288,4.0,5.0,79,0.00,,,0.01,Wunderground PWS Mod,2013-07-19 13:40:00,
2013-07-19 09:45:00,81.8,74.3,29.70,SW,219,4.0,14.0,78,0.00,,,0.01,Wunderground PWS Mod,2013-07-19 13:45:00,
2013-07-19 09:50:00,83.2,74.4,29.68,SW,225,5.0,17.0,75,0.00,,,0.01,Wunderground PWS Mod,2013-07-19 13:50:00,
2013-07-19 09:55:00,82.4,74.5,29.69,South,185,6.0,14.0,77,0.00,,,0.01,Wunderground PWS Mod,2013-07-19 13:55:00,
2013-07-19 10:00:00,82.8,74.8,29.69,SSW,208,4.0,14.0,77,0.00,,,0.01,Wunderground PWS Mod,2013-07-19 14:00:00,
2013-07-19 10:05:00,83.0,75.0,29.69,SSW,208,4.0,14.0,77,0.00,,,0.01,Wunderground PWS Mod,2013-07-19 14:05:00,
2013-07-19 10:10:00,83.2,74.4,29.68,WSW,250,5.0,14.0,75,0.00,,,0.01,Wunderground PWS Mod,2013-07-19 14:10:00,
2013-07-19 10:15:00,83.6,74.4,29.68,ESE,119,4.0,17.0,74,0.00,,,0.01,Wunderground PWS Mod,2013-07-19 14:15:00,
2013-07-19 10:25:00,84.0,75.2,29.68,SW,236,5.0,17.0,75,0.00,,,0.01,Wunderground PWS Mod,2013-07-19 14:25:00,
2013-07-19 10:30:00,84.0,74.4,29.68,South,175,5.0,17.0,73,0.00,,,0.01,Wunderground PWS Mod,2013-07-19 14:30:00,
2013-07-19 10:35:00,84.1,74.1,29.68,SW,226,6.0,17.0,72,0.00,,,0.01,Wunderground PWS Mod,2013-07-19 14:35:00,
2013-07-19 10:40:00,84.1,74.9,29.68,SSE,166,7.0,17.0,74,0.00,,,0.01,Wunderground PWS Mod,2013-07-19 14:40:00,
2013-07-19 10:45:00,84.3,74.7,29.68,South,181,4.0,17.0,73,0.00,,,0.01,Wunderground PWS Mod,2013-07-19 14:45:00,
2013-07-19 10:50:00,85.3,73.5,29.68,SW,223,9.0,17.0,68,0.00,,,0.01,Wunderground PWS Mod,2013-07-19 14:50:00,
2013-07-19 10:55:00,85.1,73.8,29.68,SSW,211,7.0,17.0,69,0.00,,,0.01,Wunderground PWS Mod,2013-07-19 14:55:00,
2013-07-19 11:05:00,85.5,72.8,29.68,SW,217,9.0,17.0,66,0.00,,,0.01,Wunderground PWS Mod,2013-07-19 15:05:00,
2013-07-19 11:10:00,85.7,73.9,29.68,SW,223,7.0,17.0,68,0.00,,,0.01,Wunderground PWS Mod,2013-07-19 15:10:00,
2013-07-19 11:15:00,85.7,73.0,29.68,SSW,207,7.0,22.0,66,0.00,,,0.01,Wunderground PWS Mod,2013-07-19 15:15:00,
2013-07-19 11:25:00,85.1,72.9,29.67,SSW,213,7.0,22.0,67,0.00,,,0.01,Wunderground PWS Mod,2013-07-19 15:25:00,
2013-07-19 11:35:00,83.8,73.0,29.67,SSW,212,7.0,22.0,70,0.00,,,0.01,Wunderground PWS Mod,2013-07-19 15:35:00,
2013-07-19 11:40:00,83.4,73.0,29.67,South,180,7.0,22.0,71,0.00,,,0.01,Wunderground PWS Mod,2013-07-19 15:40:00,
2013-07-19 11:45:00,83.6,73.6,29.67,WSW,252,6.0,19.0,72,0.00,,,0.01,Wunderground PWS Mod,2013-07-19 15:45:00,
2013-07-19 11:55:00,85.1,73.8,29.66,SW,230,9.0,19.0,69,0.00,,,0.01,Wunderground PWS Mod,2013-07-19 15:55:00,
2013-07-19 12:00:00,85.5,73.3,29.66,South,186,8.0,19.0,67,0.00,,,0.01,Wunderground PWS Mod,2013-07-19 16:00:00,
2013-07-19 12:10:00,85.5,73.3,29.65,WSW,251,10.0,19.0,67,0.00,,,0.01,Wunderground PWS Mod,2013-07-19 16:10:00,
2013-07-19 12:15:00,85.9,73.7,29.65,SW,221,8.0,21.0,67,0.00,,,0.01,Wunderground PWS Mod,2013-07-19 16:15:00,
2013-07-19 12:20:00,87.2,72.6,29.64,SSW,203,10.0,24.0,62,0.00,,,0.01,Wunderground PWS Mod,2013-07-19 16:20:00,
2013-07-19 12:25:00,86.5,72.9,29.65,SW,233,11.0,21.0,64,0.00,,,0.01,Wunderground PWS Mod,2013-07-19 16:25:00,
2013-07-19 12:30:00,87.0,73.3,29.65,South,175,10.0,21.0,64,0.00,,,0.01,Wunderground PWS Mod,2013-07-19 16:30:00,
2013-07-19 12:35:00,87.0,73.8,29.65,WSW,247,10.0,21.0,65,0.00,,,0.01,Wunderground PWS Mod,2013-07-19 16:35:00,
2013-07-19 12:40:00,87.2,72.6,29.64,SW,225,12.0,21.0,62,0.00,,,0.01,Wunderground PWS Mod,2013-07-19 16:40:00,
2013-07-19 12:45:00,87.2,73.1,29.64,South,182,12.0,24.0,63,0.00,,,0.01,Wunderground PWS Mod,2013-07-19 16:45:00,
2013-07-19 12:55:00,87.8,72.7,29.64,SW,219,10.0,24.0,61,0.00,,,0.01,Wunderground PWS Mod,2013-07-19 16:55:00,
2013-07-19 13:00:00,87.8,73.2,29.64,SSW,213,11.0,24.0,62,0.00,,,0.01,Wunderground PWS Mod,2013-07-19 17:00:00,
2013-07-19 13:05:00,88.2,73.5,29.64,SW,215,9.0,24.0,62,0.00,,,0.01,Wunderground PWS Mod,2013-07-19 17:05:00,
2013-07-19 13:15:00,88.6,72.9,29.63,SSE,165,9.0,29.0,60,0.00,,,0.01,Wunderground PWS Mod,2013-07-19 17:15:00,
2013-07-19 13:25:00,88.4,72.7,29.63,SSE,163,11.0,29.0,60,0.00,,,0.01,Wunderground PWS Mod,2013-07-19 17:25:00,
2013-07-19 13:30:00,88.6,71.9,29.61,SW,225,10.0,29.0,58,0.00,,,0.01,Wunderground PWS Mod,2013-07-19 17:30:00,
2013-07-19 13:35:00,88.8,72.1,29.63,South,189,9.0,29.0,58,0.00,,,0.01,Wunderground PWS Mod,2013-07-19 17:35:00,
2013-07-19 13:40:00,88.6,71.9,29.61,South,184,11.0,29.0,58,0.00,,,0.01,Wunderground PWS Mod,2013-07-19 17:40:00,
2013-07-19 13:45:00,89.5,73.3,29.60,SSW,203,10.0,26.0,59,0.00,,,0.01,Wunderground PWS Mod,2013-07-19 17:45:00,
2013-07-19 13:50:00,88.8,73.6,29.61,South,171,12.0,29.0,61,0.00,,,0.01,Wunderground PWS Mod,2013-07-19 17:50:00,
2013-07-19 13:55:00,89.0,72.3,29.61,SW,229,11.0,29.0,58,0.00,,,0.01,Wunderground PWS Mod,2013-07-19 17:55:00,
2013-07-19 14:05:00,89.0,72.8,29.61,SW,235,12.0,29.0,59,0.00,,,0.01,Wunderground PWS Mod,2013-07-19 18:05:00,
2013-07-19 14:10:00,89.5,73.3,29.60,SSW,193,11.0,29.0,59,0.00,,,0.01,Wunderground PWS Mod,2013-07-19 18:10:00,
2013-07-19 14:15:00,89.7,73.0,29.60,South,175,9.0,26.0,58,0.00,,,0.01,Wunderground PWS Mod,2013-07-19 18:15:00,
2013-07-19 14:20:00,89.5,72.8,29.58,SSW,203,9.0,26.0,58,0.00,,,0.01,Wunderground PWS Mod,2013-07-19 18:20:00,
2013-07-19 14:25:00,89.9,72.1,29.58,SSW,196,8.0,26.0,56,0.00,,,0.01,Wunderground PWS Mod,2013-07-19 18:25:00,
2013-07-19 14:30:00,89.9,73.7,29.58,SSW,202,10.0,26.0,59,0.00,,,0.01,Wunderground PWS Mod,2013-07-19 18:30:00,
2013-07-19 14:40:00,89.5,72.8,29.58,SSW,196,10.0,26.0,58,0.00,,,0.01,Wunderground PWS Mod,2013-07-19 18:40:00,
2013-07-19 14:45:00,89.3,73.1,29.58,SW,227,12.0,26.0,59,0.00,,,0.01,Wunderground PWS Mod,2013-07-19 18:45:00,
2013-07-19 14:50:00,89.7,73.0,29.57,South,169,10.0,26.0,58,0.00,,,0.01,Wunderground PWS Mod,2013-07-19 18:50:00,
2013-07-19 14:55:00,89.3,73.6,29.57,SW,218,11.0,26.0,60,0.00,,,0.01,Wunderground PWS Mod,2013-07-19 18:55:00,
2013-07-19 15:00:00,89.9,73.1,29.57,SW,230,8.0,26.0,58,0.00,,,0.01,Wunderground PWS Mod,2013-07-19 19:00:00,
2013-07-19 15:05:00,89.5,74.3,29.57,WSW,244,10.0,26.0,61,0.00,,,0.01,Wunderground PWS Mod,2013-07-19 19:05:00,
2013-07-19 15:10:00,89.9,73.1,29.57,West,281,9.0,27.0,58,0.00,,,0.01,Wunderground PWS Mod,2013-07-19 19:10:00,
2013-07-19 15:15:00,88.6,73.9,29.56,SSW,203,9.0,22.0,62,0.00,,,0.01,Wunderground PWS Mod,2013-07-19 19:15:00,
2013-07-19 15:20:00,89.3,73.6,29.57,South,173,9.0,27.0,60,0.00,,,0.01,Wunderground PWS Mod,2013-07-19 19:20:00,
2013-07-19 15:25:00,89.5,73.8,29.57,SSW,201,8.0,27.0,60,0.00,,,0.01,Wunderground PWS Mod,2013-07-19 19:25:00,
2013-07-19 15:30:00,88.6,73.4,29.56,SSW,204,8.0,27.0,61,0.00,,,0.01,Wunderground PWS Mod,2013-07-19 19:30:00,
2013-07-19 15:35:00,88.4,73.7,29.56,SSW,194,6.0,22.0,62,0.00,,,0.01,Wunderground PWS Mod,2013-07-19 19:35:00,
2013-07-19 15:40:00,88.4,74.2,29.56,WSW,240,6.0,22.0,63,0.00,,,0.01,Wunderground PWS Mod,2013-07-19 19:40:00,
2013-07-19 15:45:00,88.4,74.2,29.56,SW,230,7.0,22.0,63,0.00,,,0.01,Wunderground PWS Mod,2013-07-19 19:45:00,
2013-07-19 15:50:00,88.6,74.4,29.56,SW,221,6.0,22.0,63,0.00,,,0.01,Wunderground PWS Mod,2013-07-19 19:50:00,
2013-07-19 15:55:00,88.8,73.6,29.56,SSW,211,7.0,22.0,61,0.00,,,0.01,Wunderground PWS Mod,2013-07-19 19:55:00,
2013-07-19 16:00:00,89.3,74.1,29.55,SE,132,9.0,22.0,61,0.00,,,0.01,Wunderground PWS Mod,2013-07-19 20:00:00,
2013-07-19 16:05:00,89.7,73.5,29.55,SW,217,10.0,23.0,59,0.00,,,0.01,Wunderground PWS Mod,2013-07-19 20:05:00,
2013-07-19 16:10:00,89.7,74.0,29.55,South,184,10.0,23.0,60,0.00,,,0.01,Wunderground PWS Mod,2013-07-19 20:10:00,
2013-07-19 16:15:00,89.5,74.8,29.55,WSW,241,10.0,23.0,62,0.00,,,0.01,Wunderground PWS Mod,2013-07-19 20:15:00,
2013-07-19 16:20:00,89.5,74.3,29.55,SSW,207,9.0,23.0,61,0.00,,,0.01,Wunderground PWS Mod,2013-07-19 20:20:00,
2013-07-19 16:25:00,89.5,74.8,29.55,SSW,194,9.0,23.0,62,0.00,,,0.01,Wunderground PWS Mod,2013-07-19 20:25:00,
2013-07-19 16:30:00,89.5,73.8,29.55,SSW,195,9.0,23.0,60,0.00,,,0.01,Wunderground PWS Mod,2013-07-19 20:30:00,
2013-07-19 16:35:00,89.5,74.3,29.55,SSW,209,8.0,29.0,61,0.00,,,0.01,Wunderground PWS Mod,2013-07-19 20:35:00,
2013-07-19 16:40:00,89.3,74.6,29.55,SW,224,8.0,29.0,62,0.00,,,0.01,Wunderground PWS Mod,2013-07-19 20:40:00,
2013-07-19 16:45:00,89.0,74.3,29.56,SSW,209,8.0,29.0,62,0.00,,,0.01,Wunderground PWS Mod,2013-07-19 20:45:00,
2013-07-19 16:50:00,89.5,75.2,29.56,SSW,209,7.0,29.0,63,0.00,,,0.01,Wunderground PWS Mod,2013-07-19 20:50:00,
2013-07-19 16:55:00,89.9,74.6,29.56,SW,229,5.0,29.0,61,0.00,,,0.01,Wunderground PWS Mod,2013-07-19 20:55:00,
2013-07-19 17:00:00,90.1,74.8,29.55,WSW,250,7.0,29.0,61,0.00,,,0.01,Wunderground PWS Mod,2013-07-19 21:00:00,
2013-07-19 17:05:00,90.3,74.5,29.55,WSW,238,7.0,22.0,60,0.00,,,0.01,Wunderground PWS Mod,2013-07-19 21:05:00,
2013-07-19 17:10:00,90.3,74.5,29.55,SW,229,6.0,22.0,60,0.00,,,0.01,Wunderground PWS Mod,2013-07-19 21:10:00,
2013-07-19 17:15:00,90.3,74.5,29.55,SSW,207,6.0,22.0,60,0.00,,,0.01,Wunderground PWS Mod,2013-07-19 21:15:00,
2013-07-19 17:20:00,90.1,74.8,29.55,SSW,196,6.0,22.0,61,0.00,,,0.01,Wunderground PWS Mod,2013-07-19 21:20:00,
2013-07-19 17:25:00,89.7,74.0,29.55,SSW,198,8.0,22.0,60,0.00,,,0.01,Wunderground PWS Mod,2013-07-19 21:25:00,
2013-07-19 17:30:00,89.0,74.3,29.55,SSW,199,9.0,22.0,62,0.00,,,0.01,Wunderground PWS Mod,2013-07-19 21:30:00,
2013-07-19 17:35:00,88.6,74.4,29.55,South,178,6.0,21.0,63,0.00,,,0.01,Wunderground PWS Mod,2013-07-19 21:35:00,
2013-07-19 17:40:00,88.4,74.2,29.55,WSW,246,4.0,21.0,63,0.00,,,0.01,Wunderground PWS Mod,2013-07-19 21:40:00,
2013-07-19 17:45:00,88.6,73.4,29.55,SSW,205,5.0,21.0,61,0.00,,,0.01,Wunderground PWS Mod,2013-07-19 21:45:00,
2013-07-19 17:50:00,88.6,73.9,29.55,South,173,6.0,21.0,62,0.00,,,0.01,Wunderground PWS Mod,2013-07-19 21:50:00,
2013-07-19 17:55:00,88.4,74.2,29.55,SSW,208,7.0,21.0,63,0.00,,,0.01,Wunderground PWS Mod,2013-07-19 21:55:00,
2013-07-19 18:05:00,86.5,74.2,29.55,SW,217,5.0,18.0,67,0.00,,,0.01,Wunderground PWS Mod,2013-07-19 22:05:00,
2013-07-19 18:10:00,87.6,73.9,29.55,SSW,201,7.0,21.0,64,0.00,,,0.01,Wunderground PWS Mod,2013-07-19 22:10:00,
2013-07-19 18:15:00,85.1,73.8,29.56,SSW,192,3.0,18.0,69,0.00,,,0.01,Wunderground PWS Mod,2013-07-19 22:15:00,
2013-07-19 18:20:00,84.9,74.4,29.56,SW,223,3.0,18.0,71,0.00,,,0.01,Wunderground PWS Mod,2013-07-19 22:20:00,
2013-07-19 18:25:00,85.1,75.1,29.56,WSW,249,3.0,18.0,72,0.00,,,0.01,Wunderground PWS Mod,2013-07-19 22:25:00,
2013-07-19 18:30:00,85.3,74.4,29.57,WSW,246,2.0,18.0,70,0.00,,,0.01,Wunderground PWS Mod,2013-07-19 22:30:00,
2013-07-19 18:35:00,85.7,75.2,29.57,SW,232,2.0,13.0,71,0.00,,,0.01,Wunderground PWS Mod,2013-07-19 22:35:00,
2013-07-19 18:40:00,85.7,75.6,29.57,WSW,240,2.0,13.0,72,0.00,,,0.01,Wunderground PWS Mod,2013-07-19 22:40:00,
2013-07-19 18:45:00,85.7,74.8,29.57,SW,236,3.0,13.0,70,0.00,,,0.01,Wunderground PWS Mod,2013-07-19 22:45:00,
2013-07-19 18:50:00,85.7,74.8,29.57,SW,228,2.0,13.0,70,0.00,,,0.01,Wunderground PWS Mod,2013-07-19 22:50:00,
2013-07-19 18:55:00,85.7,75.2,29.57,WSW,245,2.0,13.0,71,0.00,,,0.01,Wunderground PWS Mod,2013-07-19 22:55:00,
2013-07-19 19:00:00,85.7,74.8,29.57,SW,234,1.0,13.0,70,0.00,,,0.01,Wunderground PWS Mod,2013-07-19 23:00:00,
2013-07-19 19:05:00,85.3,74.8,29.57,SSW,194,2.0,7.0,71,0.00,,,0.01,Wunderground PWS Mod,2013-07-19 23:05:00,
2013-07-19 19:10:00,85.1,73.8,29.57,SW,224,3.0,9.0,69,0.00,,,0.01,Wunderground PWS Mod,2013-07-19 23:10:00,
2013-07-19 19:15:00,84.7,72.5,29.56,SSW,207,4.0,7.0,67,0.00,,,0.01,Wunderground PWS Mod,2013-07-19 23:15:00,
2013-07-19 19:20:00,84.5,72.8,29.56,SW,228,4.0,7.0,68,0.00,,,0.01,Wunderground PWS Mod,2013-07-19 23:20:00,
2013-07-19 19:25:00,84.1,73.3,29.56,SW,227,2.0,7.0,70,0.00,,,0.01,Wunderground PWS Mod,2013-07-19 23:25:00,
2013-07-19 19:30:00,83.6,73.6,29.57,SW,227,1.0,7.0,72,0.00,,,0.01,Wunderground PWS Mod,2013-07-19 23:30:00,
2013-07-19 19:35:00,83.0,73.9,29.57,SW,227,0.0,11.0,74,0.00,,,0.01,Wunderground PWS Mod,2013-07-19 23:35:00,
2013-07-19 19:40:00,82.4,73.7,29.57,SW,227,0.0,11.0,75,0.00,,,0.01,Wunderground PWS Mod,2013-07-19 23:40:00,
2013-07-19 19:45:00,81.8,73.9,29.57,SW,227,0.0,11.0,77,0.00,,,0.01,Wunderground PWS Mod,2013-07-19 23:45:00,
2013-07-19 19:50:00,81.4,74.6,29.57,SW,227,0.0,11.0,80,0.00,,,0.01,Wunderground PWS Mod,2013-07-19 23:50:00,
2013-07-19 19:55:00,80.9,74.1,29.57,SW,227,0.0,11.0,80,0.00,,,0.01,Wunderground PWS Mod,2013-07-19 23:55:00,
2013-07-19 20:00:00,79.9,73.2,29.64,SW,222,3.0,13.0,80,0.00,,,0.01,Wunderground PWS Mod,2013-07-20 00:00:00,
2013-07-19 20:05:00,79.6,68.1,29.64,SSE,159,10.0,30.0,68,0.00,,,0.01,Wunderground PWS Mod,2013-07-20 00:05:00,
2013-07-19 20:10:00,78.3,68.5,29.64,SW,227,9.0,30.0,72,0.00,,,0.02,Wunderground PWS Mod,2013-07-20 00:10:00,
2013-07-19 20:15:00,76.0,69.4,29.63,South,171,5.0,30.0,80,0.00,,,0.02,Wunderground PWS Mod,2013-07-20 00:15:00,
2013-07-19 20:20:00,74.0,69.2,29.63,SSE,159,4.0,30.0,85,0.06,,,0.03,Wunderground PWS Mod,2013-07-20 00:20:00,
2013-07-19 20:25:00,72.5,69.4,29.63,SSW,198,3.0,30.0,90,0.11,,,0.04,Wunderground PWS Mod,2013-07-20 00:25:00,
2013-07-19 20:30:00,71.5,69.1,29.64,SSE,159,3.0,30.0,92,0.08,,,0.04,Wunderground PWS Mod,2013-07-20 00:30:00,
2013-07-19 20:35:00,70.8,69.3,29.64,SSE,163,3.0,24.0,95,0.05,,,0.04,Wunderground PWS Mod,2013-07-20 00:35:00,
2013-07-19 20:40:00,70.3,69.4,29.64,SSE,163,1.0,24.0,97,0.00,,,0.04,Wunderground PWS Mod,2013-07-20 00:40:00,
2013-07-19 20:45:00,70.1,69.5,29.62,SSE,163,0.0,24.0,98,0.00,,,0.04,Wunderground PWS Mod,2013-07-20 00:45:00,
2013-07-19 20:50:00,69.9,69.6,29.62,SSE,163,0.0,24.0,99,0.00,,,0.04,Wunderground PWS Mod,2013-07-20 00:50:00,
2013-07-19 20:55:00,69.9,69.9,29.62,SSE,163,1.0,24.0,100,0.00,,,0.04,Wunderground PWS Mod,2013-07-20 00:55:00,
2013-07-19 21:00:00,69.9,69.9,29.62,West,260,0.0,24.0,100,0.00,,,0.04,Wunderground PWS Mod,2013-07-20 01:00:00,
2013-07-19 21:05:00,70.1,70.1,29.62,West,260,0.0,5.0,100,0.00,,,0.04,Wunderground PWS Mod,2013-07-20 01:05:00,
2013-07-19 21:10:00,69.9,69.9,29.62,West,260,0.0,5.0,100,0.00,,,0.04,Wunderground PWS Mod,2013-07-20 01:10:00,
2013-07-19 21:15:00,69.8,69.8,29.62,West,260,0.0,5.0,100,0.00,,,0.04,Wunderground PWS Mod,2013-07-20 01:15:00,
2013-07-19 21:20:00,69.8,69.8,29.62,WSW,255,1.0,5.0,100,0.00,,,0.04,Wunderground PWS Mod,2013-07-20 01:20:00,
2013-07-19 21:25:00,69.8,69.8,29.62,WSW,253,1.0,5.0,100,0.00,,,0.04,Wunderground PWS Mod,2013-07-20 01:25:00,
2013-07-19 21:30:00,69.6,69.6,29.63,SSE,155,0.0,5.0,100,0.00,,,0.04,Wunderground PWS Mod,2013-07-20 01:30:00,
2013-07-19 21:35:00,69.4,69.4,29.63,SSE,155,0.0,4.0,100,0.00,,,0.04,Wunderground PWS Mod,2013-07-20 01:35:00,
2013-07-19 21:40:00,69.4,69.4,29.63,SSE,155,0.0,4.0,100,0.00,,,0.04,Wunderground PWS Mod,2013-07-20 01:40:00,
2013-07-19 21:45:00,69.3,69.3,29.64,SW,227,2.0,4.0,100,0.00,,,0.04,Wunderground PWS Mod,2013-07-20 01:45:00,
2013-07-19 21:50:00,69.1,69.1,29.64,SW,216,2.0,4.0,100,0.00,,,0.04,Wunderground PWS Mod,2013-07-20 01:50:00,
2013-07-19 21:55:00,69.1,69.1,29.64,South,179,2.0,4.0,100,0.00,,,0.04,Wunderground PWS Mod,2013-07-20 01:55:00,
2013-07-19 22:00:00,68.9,68.9,29.64,SW,236,2.0,4.0,100,0.00,,,0.04,Wunderground PWS Mod,2013-07-20 02:00:00,
2013-07-19 22:05:00,68.9,68.9,29.64,SW,236,1.0,6.0,100,0.00,,,0.04,Wunderground PWS Mod,2013-07-20 02:05:00,
2013-07-19 22:10:00,68.8,68.8,29.64,SW,236,0.0,6.0,100,0.00,,,0.04,Wunderground PWS Mod,2013-07-20 02:10:00,
2013-07-19 22:15:00,68.6,68.6,29.63,SW,236,0.0,6.0,100,0.00,,,0.04,Wunderground PWS Mod,2013-07-20 02:15:00,
2013-07-19 22:20:00,68.6,68.6,29.63,SW,236,0.0,6.0,100,0.00,,,0.04,Wunderground PWS Mod,2013-07-20 02:20:00,
2013-07-19 22:25:00,68.6,68.6,29.63,SW,236,0.0,6.0,100,0.00,,,0.04,Wunderground PWS Mod,2013-07-20 02:25:00,
2013-07-19 22:30:00,68.6,68.6,29.62,SW,236,0.0,6.0,100,0.00,,,0.04,Wunderground PWS Mod,2013-07-20 02:30:00,
2013-07-19 22:35:00,68.6,68.6,29.62,SW,236,0.0,3.0,100,0.00,,,0.04,Wunderground PWS Mod,2013-07-20 02:35:00,
2013-07-19 22:40:00,68.6,68.6,29.62,SW,236,0.0,3.0,100,0.00,,,0.04,Wunderground PWS Mod,2013-07-20 02:40:00,
2013-07-19 22:45:00,68.4,68.4,29.61,SW,236,0.0,3.0,100,0.00,,,0.04,Wunderground PWS Mod,2013-07-20 02:45:00,
2013-07-19 22:50:00,68.4,68.4,29.61,SW,236,0.0,3.0,100,0.00,,,0.04,Wunderground PWS Mod,2013-07-20 02:50:00,
2013-07-19 22:55:00,68.4,68.4,29.61,SW,236,0.0,3.0,100,0.00,,,0.04,Wunderground PWS Mod,2013-07-20 02:55:00,
2013-07-19 23:00:00,68.4,68.4,29.61,SW,236,1.0,3.0,100,0.00,,,0.04,Wunderground PWS Mod,2013-07-20 03:00:00,
2013-07-19 23:05:00,68.4,68.4,29.61,SW,236,0.0,2.0,100,0.00,,,0.04,Wunderground PWS Mod,2013-07-20 03:05:00,
2013-07-19 23:10:00,68.4,68.4,29.61,SW,236,0.0,2.0,100,0.00,,,0.04,Wunderground PWS Mod,2013-07-20 03:10:00,
2013-07-19 23:15:00,68.4,68.4,29.59,SW,236,0.0,2.0,100,0.00,,,0.04,Wunderground PWS Mod,2013-07-20 03:15:00,
2013-07-19 23:20:00,68.3,68.3,29.59,SW,236,0.0,2.0,100,0.00,,,0.04,Wunderground PWS Mod,2013-07-20 03:20:00,
2013-07-19 23:25:00,68.1,68.1,29.59,SW,236,0.0,2.0,100,0.00,,,0.04,Wunderground PWS Mod,2013-07-20 03:25:00,
2013-07-19 23:30:00,68.1,68.1,29.57,SW,236,0.0,4.0,100,0.00,,,0.04,Wunderground PWS Mod,2013-07-20 03:30:00,
2013-07-19 23:35:00,67.9,67.9,29.57,SW,236,1.0,2.0,100,0.00,,,0.04,Wunderground PWS Mod,2013-07-20 03:35:00,
2013-07-19 23:40:00,67.8,67.8,29.57,SW,236,1.0,2.0,100,0.00,,,0.04,Wunderground PWS Mod,2013-07-20 03:40:00,
2013-07-19 23:45:00,67.9,67.9,29.59,SW,236,0.0,2.0,100,0.00,,,0.04,Wunderground PWS Mod,2013-07-20 03:45:00,
2013-07-19 23:50:00,67.9,67.9,29.59,SW,236,0.0,2.0,100,0.00,,,0.04,Wunderground PWS Mod,2013-07-20 03:50:00,
2013-07-19 23:55:00,68.1,68.1,29.59,SW,236,0.0,2.0,100,0.00,,,0.04,Wunderground PWS Mod,2013-07-20 03:55:00,